createdAt,value
2023-03-26T00:08:34.586Z,7.75
2023-03-26T00:23:54.518Z,7.84
2023-03-26T00:38:59.669Z,7.74
2023-03-26T01:09:36.457Z,7.65
2023-03-26T01:24:42.142Z,7.64
2023-03-26T01:40:27.111Z,7.57
2023-03-26T01:56:06.087Z,7.63
2023-03-26T02:11:16.648Z,7.61
2023-03-26T02:26:21.602Z,7.74
2023-03-26T02:56:44.373Z,7.76
2023-03-26T03:11:49.086Z,7.76
2023-03-26T03:26:58.279Z,7.74
2023-03-26T03:57:22.680Z,7.79
2023-03-26T04:12:40.833Z,7.91
2023-03-26T04:27:46.512Z,7.93
2023-03-26T04:42:51.376Z,7.93
2023-03-26T04:58:05.671Z,7.93
2023-03-26T05:13:25.212Z,7.96
2023-03-26T05:28:29.638Z,7.92
2023-03-26T05:43:49.337Z,7.89
2023-03-26T05:58:54.129Z,7.86
2023-03-26T06:13:59.126Z,7.83
2023-03-26T06:44:49.305Z,8.10
2023-03-26T06:59:54.571Z,8.16
2023-03-26T07:15:02.845Z,8.42
2023-03-26T07:30:26.966Z,8.77
2023-03-26T07:49:49.620Z,9.08
2023-03-26T08:05:18.982Z,9.13
2023-03-26T08:20:36.855Z,9.12
2023-03-26T08:51:41.198Z,9.67
2023-03-26T09:07:08.140Z,9.67
2023-03-26T10:23:29.662Z,10.70
2023-03-26T10:39:40.151Z,10.84
2023-03-26T10:55:12.420Z,10.29
2023-03-26T11:11:10.084Z,10.19
2023-03-26T11:27:14.936Z,10.29
2023-03-26T11:42:25.121Z,11.02
2023-03-26T11:57:35.870Z,11.85
2023-03-26T12:12:42.966Z,12.40
2023-03-26T12:28:17.845Z,11.95
2023-03-26T12:44:52.874Z,11.41
2023-03-26T13:00:11.781Z,10.95
2023-03-26T13:15:52.596Z,10.75
2023-03-26T13:31:22.975Z,11.25
2023-03-26T13:46:37.235Z,11.79
2023-03-26T14:01:56.450Z,11.98
2023-03-26T14:17:10.191Z,11.80
2023-03-26T14:33:28.678Z,11.45
2023-03-26T14:49:41.215Z,11.19
2023-03-26T15:05:46.849Z,11.03
2023-03-26T15:21:44.550Z,10.84
2023-03-26T15:37:19.482Z,10.66
2023-03-26T15:52:57.824Z,10.51
2023-03-26T16:08:22.755Z,10.37
2023-03-26T16:23:47.558Z,10.24
2023-03-26T16:39:12.059Z,10.07
2023-03-26T16:54:33.988Z,10.02
2023-03-26T17:10:10.467Z,9.62
2023-03-26T17:25:37.785Z,9.13
2023-03-26T17:41:01.808Z,8.69
2023-03-26T17:56:19.368Z,8.41
2023-03-26T18:13:27.016Z,8.29
2023-03-26T18:44:37.301Z,7.56
2023-03-26T18:59:45.692Z,7.20
2023-03-26T19:15:17.736Z,6.91
2023-03-26T19:30:33.983Z,6.88
2023-03-26T20:01:13.737Z,6.85
2023-03-26T20:16:35.234Z,6.51
2023-03-26T20:31:42.289Z,6.20
2023-03-26T20:46:50.102Z,6.11
2023-03-26T21:01:57.492Z,6.10
2023-03-26T21:17:03.303Z,5.84
2023-03-26T21:32:10.670Z,5.42
2023-03-26T21:47:15.882Z,5.19
2023-03-26T22:03:13.538Z,5.28
2023-03-26T22:18:21.832Z,5.02
2023-03-26T22:33:26.172Z,4.77
2023-03-26T22:48:31.275Z,4.63
2023-03-26T23:03:38.097Z,4.39
2023-03-26T23:18:43.517Z,4.20
2023-03-26T23:33:47.902Z,4.04
2023-03-26T23:49:05.928Z,4.06
